createdAt,value
2022-11-04T00:01:47.174Z,97668.75
2022-11-04T00:04:15.914Z,97668.00
2022-11-04T00:06:43.003Z,97664.66
2022-11-04T00:09:13.488Z,97682.28
2022-11-04T00:11:58.826Z,97683.75
2022-11-04T00:14:26.072Z,97693.44
2022-11-04T00:17:11.544Z,97685.84
2022-11-04T00:19:57.110Z,97680.84
2022-11-04T00:22:43.044Z,97684.72
2022-11-04T00:25:29.173Z,97683.25
2022-11-04T00:28:25.506Z,97680.47
2022-11-04T00:30:57.674Z,97686.91
2022-11-04T00:33:27.783Z,97690.38
2022-11-04T00:35:57.470Z,97696.25
2022-11-04T00:38:25.813Z,97697.22
2022-11-04T00:40:52.946Z,97693.56
2022-11-04T00:43:19.846Z,97695.56
2022-11-04T00:45:46.624Z,97707.34
2022-11-04T00:48:14.086Z,97717.06
2022-11-04T00:50:41.151Z,97728.75
2022-11-04T00:53:08.238Z,97737.13
2022-11-04T00:55:35.405Z,97739.59
2022-11-04T00:58:02.411Z,97727.13
2022-11-04T01:00:30.095Z,97728.41
2022-11-04T01:02:58.197Z,97746.88
2022-11-04T01:05:25.048Z,97749.81
2022-11-04T01:07:51.832Z,97749.63
2022-11-04T01:10:19.030Z,97750.91
2022-11-04T01:12:45.769Z,97740.88
2022-11-04T01:15:12.560Z,97747.88
2022-11-04T01:17:39.596Z,97739.34
2022-11-04T01:20:07.275Z,97746.50
2022-11-04T01:22:34.039Z,97728.47
2022-11-04T01:25:01.385Z,97732.63
2022-11-04T01:27:28.466Z,97726.88
2022-11-04T01:29:55.638Z,97707.81
2022-11-04T01:32:22.404Z,97700.66
2022-11-04T01:34:49.520Z,97704.47
2022-11-04T01:37:16.794Z,97704.81
2022-11-04T01:39:44.177Z,97714.72
2022-11-04T01:42:14.287Z,97711.53
2022-11-04T01:44:56.276Z,97703.31
2022-11-04T01:47:45.706Z,97703.75
2022-11-04T01:50:19.613Z,97705.19
2022-11-04T01:52:52.744Z,97706.94
2022-11-04T01:55:22.766Z,97707.09
2022-11-04T01:57:50.669Z,97709.28
2022-11-04T02:00:18.735Z,97708.38
2022-11-04T02:03:25.990Z,97707.47
2022-11-04T02:05:53.121Z,97704.38
2022-11-04T02:08:20.972Z,97694.22
2022-11-04T02:10:54.150Z,97710.00
2022-11-04T02:13:21.091Z,97698.84
2022-11-04T02:16:26.022Z,97703.13
2022-11-04T02:19:09.296Z,97704.09
2022-11-04T02:22:09.916Z,97715.28
2022-11-04T02:24:48.525Z,97731.16
2022-11-04T02:27:31.436Z,97729.50
2022-11-04T02:30:17.072Z,97731.22
2022-11-04T02:33:09.652Z,97723.44
2022-11-04T02:35:48.096Z,97733.06
2022-11-04T02:38:34.626Z,97743.66
2022-11-04T02:41:10.719Z,97748.75
2022-11-04T02:44:13.570Z,97750.94
2022-11-04T02:46:53.836Z,97751.38
2022-11-04T02:49:34.234Z,97761.91
2022-11-04T02:52:24.831Z,97762.63
2022-11-04T02:54:57.325Z,97756.09
2022-11-04T02:57:30.901Z,97762.63
2022-11-04T03:00:06.085Z,97764.25
2022-11-04T03:02:42.736Z,97765.44
2022-11-04T03:05:14.814Z,97756.63
2022-11-04T03:07:43.003Z,97765.16
2022-11-04T03:10:18.071Z,97766.25
2022-11-04T03:13:21.704Z,97767.06
2022-11-04T03:16:14.082Z,97778.03
2022-11-04T03:18:46.798Z,97785.19
2022-11-04T03:21:14.588Z,97801.63
2022-11-04T03:23:41.559Z,97810.88
2022-11-04T03:26:42.283Z,97802.66
2022-11-04T03:29:39.904Z,97812.22
2022-11-04T03:32:26.725Z,97809.88
2022-11-04T03:34:54.356Z,97812.59
2022-11-04T03:37:22.372Z,97819.22
2022-11-04T03:39:50.227Z,97817.59
2022-11-04T03:42:22.709Z,97828.38
2022-11-04T03:44:52.779Z,97832.09
2022-11-04T03:47:22.308Z,97832.63
2022-11-04T03:49:50.740Z,97825.63
2022-11-04T03:52:18.624Z,97832.09
2022-11-04T03:54:48.171Z,97826.84
2022-11-04T03:57:56.641Z,97828.38
2022-11-04T04:00:24.296Z,97827.94
2022-11-04T04:03:15.160Z,97842.53
2022-11-04T04:05:54.302Z,97838.44
2022-11-04T04:08:41.733Z,97833.34
2022-11-04T04:11:20.764Z,97850.13
2022-11-04T04:13:57.319Z,97847.84
2022-11-04T04:16:57.489Z,97844.34
2022-11-04T04:19:26.229Z,97853.72
2022-11-04T04:21:59.455Z,97868.25
2022-11-04T04:24:49.762Z,97876.78
2022-11-04T04:27:32.134Z,97871.41
2022-11-04T04:30:08.142Z,97873.38
2022-11-04T04:32:39.694Z,97878.59
2022-11-04T04:35:27.038Z,97872.03
2022-11-04T04:38:18.290Z,97875.50
2022-11-04T04:41:19.580Z,97875.91
2022-11-04T04:44:06.571Z,97872.03
2022-11-04T04:46:36.390Z,97859.97
2022-11-04T04:49:08.267Z,97868.09
2022-11-04T04:51:40.158Z,97868.50
2022-11-04T04:54:08.010Z,97880.38
2022-11-04T04:56:36.371Z,97890.22
2022-11-04T04:59:04.562Z,97901.28
2022-11-04T05:01:31.585Z,97903.75
2022-11-04T05:03:59.096Z,97917.41
2022-11-04T05:06:27.865Z,97926.94
2022-11-04T05:08:56.616Z,97909.91
2022-11-04T05:11:24.544Z,97900.09
2022-11-04T05:13:54.698Z,97899.41
2022-11-04T05:16:22.247Z,97905.66
2022-11-04T05:18:52.641Z,97882.03
2022-11-04T05:21:19.703Z,97876.25
2022-11-04T05:23:47.311Z,97886.59
2022-11-04T05:26:16.670Z,97907.66
2022-11-04T05:28:43.762Z,97908.97
2022-11-04T05:31:11.031Z,97905.34
2022-11-04T05:33:38.705Z,97910.59
2022-11-04T05:36:09.722Z,97927.00
2022-11-04T05:38:38.216Z,97932.59
2022-11-04T05:41:07.151Z,97943.09
2022-11-04T05:43:36.523Z,97940.78
2022-11-04T05:46:04.388Z,97934.22
2022-11-04T05:48:36.361Z,97944.88
2022-11-04T05:51:08.169Z,97939.97
2022-11-04T05:53:35.881Z,97943.56
2022-11-04T05:56:03.492Z,97962.28
2022-11-04T05:58:30.847Z,97966.56
2022-11-04T06:01:29.054Z,97972.66
2022-11-04T06:03:57.547Z,97962.78
2022-11-04T06:06:25.967Z,97959.19
2022-11-04T06:08:53.845Z,97957.56
2022-11-04T06:11:24.260Z,97963.81
2022-11-04T06:13:54.178Z,97971.34
2022-11-04T06:16:22.653Z,97974.63
2022-11-04T06:18:51.882Z,97968.06
2022-11-04T06:21:26.598Z,97970.69
2022-11-04T06:23:54.880Z,97968.28
2022-11-04T06:26:27.725Z,97974.66
2022-11-04T06:28:55.297Z,97988.59
2022-11-04T06:31:23.399Z,97981.56
2022-11-04T06:33:50.764Z,97993.53
2022-11-04T06:36:18.126Z,97991.72
2022-11-04T06:38:45.907Z,97998.94
2022-11-04T06:41:16.415Z,97997.78
2022-11-04T06:43:45.178Z,97997.59
2022-11-04T06:46:29.937Z,97997.44
2022-11-04T06:48:57.850Z,97990.06
2022-11-04T06:51:26.023Z,97985.50
2022-11-04T06:53:52.986Z,97986.97
2022-11-04T06:56:21.576Z,97990.72
2022-11-04T06:58:54.339Z,98000.91
2022-11-04T07:01:24.604Z,97999.75
2022-11-04T07:03:54.948Z,98001.88
2022-11-04T07:06:24.468Z,98011.56
2022-11-04T07:08:56.116Z,98022.38
2022-11-04T07:11:26.386Z,98023.53
2022-11-04T07:13:57.734Z,98025.50
2022-11-04T07:16:27.581Z,98032.72
2022-11-04T07:18:58.341Z,98033.88
2022-11-04T07:21:28.553Z,98026.66
2022-11-04T07:23:57.669Z,98040.94
2022-11-04T07:26:25.830Z,98038.78
2022-11-04T07:28:53.564Z,98054.34
2022-11-04T07:31:23.005Z,98044.50
2022-11-04T07:33:52.396Z,98046.31
2022-11-04T07:36:19.890Z,98042.56
2022-11-04T07:38:47.836Z,98054.53
2022-11-04T07:41:16.208Z,98050.09
2022-11-04T07:43:44.106Z,98057.16
2022-11-04T07:46:13.092Z,98068.78
2022-11-04T07:48:40.746Z,98070.47
2022-11-04T07:51:12.108Z,98082.72
2022-11-04T07:53:40.586Z,98082.56
2022-11-04T07:56:13.938Z,98092.59
2022-11-04T07:58:42.390Z,98103.25
2022-11-04T08:01:13.847Z,98097.34
2022-11-04T08:03:46.045Z,98094.72
2022-11-04T08:06:15.547Z,98092.09
2022-11-04T08:08:44.147Z,98093.41
2022-11-04T08:11:25.414Z,98087.00
2022-11-04T08:13:52.811Z,98076.19
2022-11-04T08:16:22.276Z,98078.81
2022-11-04T08:18:51.768Z,98080.44
2022-11-04T08:21:20.788Z,98081.78
2022-11-04T08:23:51.946Z,98073.09
2022-11-04T08:26:21.577Z,98064.19
2022-11-04T08:28:59.866Z,98068.66
2022-11-04T08:31:29.873Z,98065.22
2022-11-04T08:33:58.887Z,98069.94
2022-11-04T08:36:31.761Z,98059.28
2022-11-04T08:38:59.617Z,98056.81
2022-11-04T08:41:29.449Z,98070.59
2022-11-04T08:43:57.809Z,98062.91
2022-11-04T08:46:26.187Z,98060.75
2022-11-04T08:48:56.092Z,98056.34
2022-11-04T08:51:27.139Z,98053.88
2022-11-04T08:53:55.663Z,98049.94
2022-11-04T08:56:26.995Z,98044.03
2022-11-04T08:58:54.713Z,98033.69
2022-11-04T09:01:22.804Z,98034.31
2022-11-04T09:03:51.114Z,98025.78
2022-11-04T09:06:27.968Z,98020.16
2022-11-04T09:09:02.932Z,98019.81
2022-11-04T09:11:34.049Z,98021.94
2022-11-04T09:14:03.036Z,98017.84
2022-11-04T09:16:31.571Z,98018.47
2022-11-04T09:18:59.073Z,98026.00
2022-11-04T09:21:27.160Z,98041.41
2022-11-04T09:23:55.029Z,98045.97
2022-11-04T09:26:24.093Z,98052.22
2022-11-04T09:28:58.950Z,98076.88
2022-11-04T09:31:28.568Z,98077.88
2022-11-04T09:33:56.419Z,98095.28
2022-11-04T09:36:24.902Z,98101.00
2022-11-04T09:38:52.219Z,98093.13
2022-11-04T09:41:31.527Z,98097.41
2022-11-04T09:44:24.559Z,98087.69
2022-11-04T09:46:53.626Z,98089.34
2022-11-04T09:49:21.944Z,98090.53
2022-11-04T09:51:55.438Z,98096.41
2022-11-04T09:54:47.012Z,98100.19
2022-11-04T09:57:18.415Z,98094.25
2022-11-04T09:59:55.649Z,98091.25
2022-11-04T10:03:05.125Z,98090.25
2022-11-04T10:05:40.868Z,98075.19
2022-11-04T10:08:40.797Z,98083.56
2022-11-04T10:11:07.825Z,98078.72
2022-11-04T10:14:21.615Z,98077.56
2022-11-04T10:17:15.206Z,98068.22
2022-11-04T10:19:57.490Z,98067.66
2022-11-04T10:22:38.056Z,98065.78
2022-11-04T10:25:15.949Z,98068.88
2022-11-04T10:27:46.400Z,98065.41
2022-11-04T10:30:24.387Z,98071.44
2022-11-04T10:33:34.368Z,98067.72
2022-11-04T10:36:05.258Z,98068.69
2022-11-04T10:38:39.298Z,98073.66
2022-11-04T10:41:37.606Z,98070.03
2022-11-04T10:44:12.383Z,98063.47
2022-11-04T10:47:15.871Z,98062.16
2022-11-04T10:50:31.878Z,98069.38
2022-11-04T10:53:20.410Z,98069.16
2022-11-04T10:56:12.709Z,98069.09
2022-11-04T10:58:46.151Z,98065.72
2022-11-04T11:01:34.875Z,98065.09
2022-11-04T11:04:08.405Z,98062.66
2022-11-04T11:06:36.838Z,98060.41
2022-11-04T11:09:15.915Z,98058.66
2022-11-04T11:11:48.670Z,98055.03
2022-11-04T11:14:37.958Z,98057.44
2022-11-04T11:17:43.463Z,98052.09
2022-11-04T11:20:21.853Z,98046.91
2022-11-04T11:22:52.388Z,98043.94
2022-11-04T11:25:34.198Z,98042.59
2022-11-04T11:28:10.862Z,98039.25
2022-11-04T11:31:08.800Z,98044.28
2022-11-04T11:33:38.826Z,98042.50
2022-11-04T11:36:15.495Z,98042.69
2022-11-04T11:39:23.706Z,98043.97
2022-11-04T11:42:21.134Z,98047.88
2022-11-04T11:44:59.721Z,98047.78
2022-11-04T11:47:42.214Z,98051.97
2022-11-04T11:50:20.963Z,98055.34
2022-11-04T11:52:49.435Z,98065.81
2022-11-04T11:55:27.466Z,98056.00
2022-11-04T12:01:47.269Z,98071.31
2022-11-04T12:10:51.321Z,98065.50
2022-11-04T12:13:30.075Z,98067.84
2022-11-04T12:16:24.344Z,98067.56
2022-11-04T12:19:10.270Z,98068.06
2022-11-04T12:21:50.954Z,98069.25
2022-11-04T12:24:28.364Z,98074.97
2022-11-04T12:27:08.176Z,98071.22
2022-11-04T12:30:00.810Z,98075.03
2022-11-04T12:32:39.941Z,98066.94
2022-11-04T12:36:05.347Z,98066.50
2022-11-04T12:38:57.093Z,98071.31
2022-11-04T12:42:19.685Z,98069.34
2022-11-04T12:45:21.500Z,98062.59
2022-11-04T12:47:50.773Z,98050.22
2022-11-04T12:50:28.793Z,98049.59
2022-11-04T12:53:46.811Z,98043.59
2022-11-04T12:56:21.163Z,98046.69
2022-11-04T12:59:10.247Z,98048.59
2022-11-04T13:01:48.489Z,98048.53
2022-11-04T13:04:38.612Z,98054.22
2022-11-04T13:07:12.596Z,98053.59
2022-11-04T13:09:54.489Z,98051.31
2022-11-04T13:12:27.831Z,98046.06
2022-11-04T13:15:00.789Z,98050.63
2022-11-04T13:17:31.816Z,98055.50
2022-11-04T13:20:07.345Z,98066.78
2022-11-04T13:22:39.640Z,98067.22
2022-11-04T13:25:15.982Z,98072.94
2022-11-04T13:27:45.942Z,98077.88
2022-11-04T13:30:23.475Z,98079.50
2022-11-04T13:33:28.960Z,98076.06
2022-11-04T13:36:07.818Z,98071.22
2022-11-04T13:38:45.990Z,98077.94
2022-11-04T13:41:32.471Z,98084.34
2022-11-04T13:44:02.823Z,98086.41
2022-11-04T13:46:33.000Z,98088.97
2022-11-04T13:49:31.306Z,98098.06
2022-11-04T13:52:13.838Z,98098.59
2022-11-04T13:54:43.292Z,98113.41
2022-11-04T13:57:17.139Z,98106.41
2022-11-04T14:00:16.500Z,98114.31
2022-11-04T14:02:45.484Z,98119.84
2022-11-04T14:05:45.961Z,98123.44
2022-11-04T14:08:17.203Z,98120.34
2022-11-04T14:11:07.871Z,98128.47
2022-11-04T14:13:46.352Z,98129.78
2022-11-04T14:16:40.623Z,98134.88
2022-11-04T14:19:47.841Z,98143.31
2022-11-04T14:22:16.936Z,98134.88
2022-11-04T14:24:45.214Z,98142.94
2022-11-04T14:27:25.402Z,98152.41
2022-11-04T14:29:53.650Z,98148.81
2022-11-04T14:32:28.681Z,98153.03
2022-11-04T14:35:05.595Z,98158.94
2022-11-04T14:37:35.092Z,98164.75
2022-11-04T14:40:05.979Z,98161.66
2022-11-04T14:42:58.410Z,98167.84
2022-11-04T14:45:29.302Z,98170.50
2022-11-04T14:48:03.978Z,98168.75
2022-11-04T14:50:32.624Z,98176.94
2022-11-04T14:53:03.111Z,98179.16
2022-11-04T14:55:32.164Z,98182.50
2022-11-04T14:58:22.872Z,98178.22
2022-11-04T15:00:50.507Z,98179.94
2022-11-04T15:06:34.911Z,98183.38
2022-11-04T15:09:23.784Z,98187.00
2022-11-04T15:12:12.205Z,98181.63
2022-11-04T15:14:40.495Z,98183.47
2022-11-04T15:17:18.208Z,98180.53
2022-11-04T15:19:49.761Z,98189.25
2022-11-04T15:22:18.495Z,98184.69
2022-11-04T15:24:46.140Z,98187.03
2022-11-04T15:27:20.476Z,98175.81
2022-11-04T15:30:07.347Z,98178.13
2022-11-04T15:32:34.807Z,98185.94
2022-11-04T15:35:04.216Z,98190.28
2022-11-04T15:37:32.560Z,98190.09
2022-11-04T15:40:00.360Z,98187.66
2022-11-04T15:42:45.765Z,98189.44
2022-11-04T15:45:47.970Z,98183.34
2022-11-04T15:48:29.334Z,98187.66
2022-11-04T15:51:35.909Z,98189.06
2022-11-04T15:54:05.813Z,98191.69
2022-11-04T15:56:50.382Z,98194.34
2022-11-04T15:59:21.658Z,98193.09
2022-11-04T16:01:50.939Z,98187.50
2022-11-04T16:04:21.747Z,98194.94
2022-11-04T16:07:21.173Z,98202.34
2022-11-04T16:09:56.223Z,98197.75
2022-11-04T16:12:36.566Z,98208.94
2022-11-04T16:15:04.652Z,98203.69
2022-11-04T16:17:32.647Z,98211.47
2022-11-04T16:20:02.724Z,98209.78
2022-11-04T16:22:37.875Z,98218.81
2022-11-04T16:25:06.083Z,98219.81
2022-11-04T16:27:35.384Z,98224.72
2022-11-04T16:30:24.652Z,98227.53
2022-11-04T16:32:55.029Z,98238.53
2022-11-04T16:35:27.467Z,98234.91
2022-11-04T16:37:59.245Z,98238.53
2022-11-04T16:40:27.226Z,98243.44
2022-11-04T16:42:54.695Z,98243.78
2022-11-04T16:45:31.501Z,98247.56
2022-11-04T16:48:01.406Z,98249.38
2022-11-04T16:50:29.780Z,98252.16
2022-11-04T16:52:57.697Z,98239.50
2022-11-04T16:55:26.045Z,98246.50
2022-11-04T16:58:00.034Z,98253.25
2022-11-04T17:00:30.263Z,98254.56
2022-11-04T17:02:58.041Z,98248.78
2022-11-04T17:05:25.786Z,98261.75
2022-11-04T17:07:57.516Z,98271.41
2022-11-04T17:10:29.286Z,98273.22
2022-11-04T17:12:56.685Z,98273.06
2022-11-04T17:15:24.549Z,98277.16
2022-11-04T17:17:51.802Z,98283.75
2022-11-04T17:20:21.249Z,98288.03
2022-11-04T17:22:49.374Z,98285.09
2022-11-04T17:25:23.501Z,98291.59
2022-11-04T17:27:51.758Z,98291.22
2022-11-04T17:30:19.731Z,98295.53
2022-11-04T17:32:49.108Z,98301.09
2022-11-04T17:35:17.786Z,98303.22
2022-11-04T17:37:46.305Z,98309.13
2022-11-04T17:40:18.727Z,98308.31
2022-11-04T17:43:10.419Z,98304.22
2022-11-04T17:45:46.244Z,98309.09
2022-11-04T17:48:15.821Z,98315.59
2022-11-04T17:50:43.819Z,98322.44
2022-11-04T17:53:12.504Z,98324.56
2022-11-04T17:55:41.471Z,98322.28
2022-11-04T17:58:09.515Z,98327.53
2022-11-04T18:00:37.969Z,98329.50
2022-11-04T18:03:07.251Z,98324.91
2022-11-04T18:05:35.899Z,98329.84
2022-11-04T18:08:03.673Z,98340.84
2022-11-04T18:10:31.123Z,98331.16
2022-11-04T18:13:00.124Z,98337.09
2022-11-04T18:15:27.744Z,98350.53
2022-11-04T18:17:56.392Z,98345.28
2022-11-04T18:20:23.991Z,98346.91
2022-11-04T18:22:52.439Z,98339.53
2022-11-04T18:25:19.650Z,98357.41
2022-11-04T18:27:49.366Z,98366.25
2022-11-04T18:30:16.700Z,98363.44
2022-11-04T18:32:45.867Z,98364.91
2022-11-04T18:35:13.645Z,98366.50
2022-11-04T18:37:47.082Z,98373.22
2022-11-04T18:40:16.817Z,98377.34
2022-11-04T18:42:45.860Z,98374.00
2022-11-04T18:45:15.014Z,98376.72
2022-11-04T18:47:42.604Z,98382.22
2022-11-04T18:50:11.380Z,98382.59
2022-11-04T18:52:51.890Z,98377.53
2022-11-04T18:55:20.249Z,98392.91
2022-11-04T18:57:48.449Z,98398.72
2022-11-04T19:00:17.427Z,98395.72
2022-11-04T19:02:46.418Z,98411.22
2022-11-04T19:05:16.339Z,98400.75
2022-11-04T19:07:46.300Z,98407.81
2022-11-04T19:10:17.146Z,98415.97
2022-11-04T19:13:07.681Z,98418.59
2022-11-04T19:15:37.168Z,98428.25
2022-11-04T19:18:06.221Z,98430.22
2022-11-04T19:20:34.420Z,98423.47
2022-11-04T19:23:07.438Z,98433.75
2022-11-04T19:25:41.953Z,98422.75
2022-11-04T19:28:34.509Z,98433.69
2022-11-04T19:31:02.835Z,98432.88
2022-11-04T19:33:43.130Z,98428.09
2022-11-04T19:36:16.103Z,98434.34
2022-11-04T19:38:44.344Z,98446.63
2022-11-04T19:41:34.390Z,98446.44
2022-11-04T19:44:08.457Z,98450.38
2022-11-04T19:46:37.077Z,98449.56
2022-11-04T19:49:07.550Z,98454.13
2022-11-04T19:51:36.200Z,98458.72
2022-11-04T19:54:04.933Z,98460.34
2022-11-04T19:56:35.098Z,98467.94
2022-11-04T19:59:06.393Z,98469.59
2022-11-04T20:01:35.792Z,98467.44
2022-11-04T20:04:04.912Z,98472.56
2022-11-04T20:06:36.398Z,98473.91
2022-11-04T20:09:07.072Z,98476.84
2022-11-04T20:11:35.561Z,98484.66
2022-11-04T20:14:08.014Z,98480.72
2022-11-04T20:16:39.827Z,98485.19
2022-11-04T20:19:08.190Z,98484.19
2022-11-04T20:21:37.891Z,98487.94
2022-11-04T20:24:08.908Z,98494.19
2022-11-04T20:26:54.188Z,98498.31
2022-11-04T20:29:24.958Z,98499.47
2022-11-04T20:31:53.117Z,98505.47
2022-11-04T20:34:20.656Z,98506.56
2022-11-04T20:36:49.889Z,98508.72
2022-11-04T20:39:20.675Z,98510.69
2022-11-04T20:41:48.967Z,98512.03
2022-11-04T20:44:20.381Z,98508.19
2022-11-04T20:46:55.767Z,98511.28
2022-11-04T20:49:24.087Z,98515.63
2022-11-04T20:51:55.449Z,98520.72
2022-11-04T20:54:23.746Z,98523.66
2022-11-04T20:56:53.103Z,98534.50
2022-11-04T20:59:22.128Z,98530.44
2022-11-04T21:02:11.584Z,98537.44
2022-11-04T21:04:40.369Z,98531.19
2022-11-04T21:07:10.492Z,98531.56
2022-11-04T21:09:39.423Z,98542.63
2022-11-04T21:12:09.299Z,98546.50
2022-11-04T21:14:41.345Z,98549.00
2022-11-04T21:17:11.048Z,98547.94
2022-11-04T21:19:44.797Z,98554.44
2022-11-04T21:22:14.481Z,98556.25
2022-11-04T21:24:45.280Z,98560.28
2022-11-04T21:27:14.835Z,98567.25
2022-11-04T21:29:48.237Z,98559.53
2022-11-04T21:32:20.241Z,98564.19
2022-11-04T21:34:52.554Z,98555.03
2022-11-04T21:37:20.799Z,98571.91
2022-11-04T21:39:47.857Z,98564.78
2022-11-04T21:42:18.809Z,98567.91
2022-11-04T21:44:51.883Z,98567.41
2022-11-04T21:47:23.295Z,98570.91
2022-11-04T21:49:53.218Z,98571.66
2022-11-04T21:52:22.795Z,98576.63
2022-11-04T21:54:52.448Z,98577.59
2022-11-04T21:57:20.611Z,98579.72
2022-11-04T21:59:52.605Z,98583.53
2022-11-04T22:02:23.600Z,98589.25
2022-11-04T22:04:56.484Z,98592.00
2022-11-04T22:07:45.410Z,98587.41
2022-11-04T22:10:14.489Z,98580.50
2022-11-04T22:12:50.075Z,98589.66
2022-11-04T22:15:46.411Z,98584.63
2022-11-04T22:18:22.535Z,98587.41
2022-11-04T22:20:51.757Z,98592.00
2022-11-04T22:23:20.380Z,98592.00
2022-11-04T22:25:50.245Z,98601.50
2022-11-04T22:28:24.563Z,98597.63
2022-11-04T22:30:53.810Z,98605.78
2022-11-04T22:33:21.743Z,98605.09
2022-11-04T22:35:53.042Z,98602.00
2022-11-04T22:38:25.294Z,98602.38
2022-11-04T22:40:56.947Z,98600.16
2022-11-04T22:43:26.865Z,98605.41
2022-11-04T22:45:55.854Z,98602.94
2022-11-04T22:48:26.449Z,98602.94
2022-11-04T22:50:58.265Z,98607.22
2022-11-04T22:53:29.560Z,98609.84
2022-11-04T22:56:00.765Z,98613.16
2022-11-04T22:58:28.393Z,98608.03
2022-11-04T23:00:59.102Z,98611.78
2022-11-04T23:03:29.722Z,98611.78
2022-11-04T23:05:59.362Z,98619.78
2022-11-04T23:08:32.094Z,98619.84
2022-11-04T23:11:22.594Z,98625.94
2022-11-04T23:14:20.057Z,98619.75
2022-11-04T23:17:10.394Z,98625.94
2022-11-04T23:19:39.739Z,98630.72
2022-11-04T23:22:27.634Z,98631.69
2022-11-04T23:25:10.162Z,98642.94
2022-11-04T23:28:04.498Z,98641.25
2022-11-04T23:30:39.814Z,98638.75
2022-11-04T23:33:25.770Z,98639.56
2022-11-04T23:36:17.174Z,98643.69
2022-11-04T23:38:50.160Z,98649.72
2022-11-04T23:41:38.745Z,98648.84
2022-11-04T23:44:27.457Z,98652.25
2022-11-04T23:47:14.672Z,98658.69
2022-11-04T23:50:02.737Z,98662.97
2022-11-04T23:52:49.629Z,98660.72
2022-11-04T23:55:35.521Z,98654.50
2022-11-04T23:58:21.625Z,98658.09
